sensor_id;sensor_type;location;lat;lon;timestamp;temperature;humidity
74171;DHT22;62526;50.948;6.590;2023-02-28T14:40:44;16.50;28.50
74171;DHT22;62526;50.948;6.590;2023-02-28T14:43:23;16.10;28.20
74171;DHT22;62526;50.948;6.590;2023-02-28T14:45:51;16.30;28.50
74171;DHT22;62526;50.948;6.590;2023-02-28T14:48:17;16.30;28.60
74171;DHT22;62526;50.948;6.590;2023-02-28T14:50:53;15.80;29.10
74171;DHT22;62526;50.948;6.590;2023-02-28T14:53:21;15.70;29.30
74171;DHT22;62526;50.948;6.590;2023-02-28T14:55:47;14.80;29.30
74171;DHT22;62526;50.948;6.590;2023-02-28T14:58:22;14.40;30.40
74171;DHT22;62526;50.948;6.590;2023-02-28T15:03:36;15.10;30.60
74171;DHT22;62526;50.948;6.590;2023-02-28T15:06:05;15.10;29.50
74171;DHT22;62526;50.948;6.590;2023-02-28T15:08:32;14.90;29.30
74171;DHT22;62526;50.948;6.590;2023-02-28T15:13:53;16.20;28.70
74171;DHT22;62526;50.948;6.590;2023-02-28T15:16:21;16.60;27.30
74171;DHT22;62526;50.948;6.590;2023-02-28T15:18:50;16.90;27.60
74171;DHT22;62526;50.948;6.590;2023-02-28T15:21:20;17.00;27.30
74171;DHT22;62526;50.948;6.590;2023-02-28T15:23:53;16.50;26.90
74171;DHT22;62526;50.948;6.590;2023-02-28T15:26:22;16.70;27.80
74171;DHT22;62526;50.948;6.590;2023-02-28T15:28:50;15.90;27.30
74171;DHT22;62526;50.948;6.590;2023-02-28T15:31:29;15.30;28.80
74171;DHT22;62526;50.948;6.590;2023-02-28T15:33:56;15.50;29.50
74171;DHT22;62526;50.948;6.590;2023-02-28T15:36:24;15.50;28.70
74171;DHT22;62526;50.948;6.590;2023-02-28T15:38:52;15.00;29.60
74171;DHT22;62526;50.948;6.590;2023-02-28T15:41:28;14.30;29.60
74171;DHT22;62526;50.948;6.590;2023-02-28T15:44:14;14.10;29.80
74171;DHT22;62526;50.948;6.590;2023-02-28T15:46:44;14.10;30.00
74171;DHT22;62526;50.948;6.590;2023-02-28T15:49:16;14.70;30.40
74171;DHT22;62526;50.948;6.590;2023-02-28T15:51:39;14.50;29.70
74171;DHT22;62526;50.948;6.590;2023-02-28T15:54:06;14.40;30.20
74171;DHT22;62526;50.948;6.590;2023-02-28T15:56:33;14.50;30.40
74171;DHT22;62526;50.948;6.590;2023-02-28T15:59:04;15.10;29.90
74171;DHT22;62526;50.948;6.590;2023-02-28T16:04:18;16.30;29.00
74171;DHT22;62526;50.948;6.590;2023-02-28T16:06:44;16.60;29.90
74171;DHT22;62526;50.948;6.590;2023-02-28T16:09:12;16.60;27.70
74171;DHT22;62526;50.948;6.590;2023-02-28T16:11:40;16.60;28.00
74171;DHT22;62526;50.948;6.590;2023-02-28T16:14:06;16.60;27.90
74171;DHT22;62526;50.948;6.590;2023-02-28T16:16:32;16.60;28.00
74171;DHT22;62526;50.948;6.590;2023-02-28T16:18:59;16.60;28.40
74171;DHT22;62526;50.948;6.590;2023-02-28T16:21:26;16.40;27.70
74171;DHT22;62526;50.948;6.590;2023-02-28T16:23:52;16.00;27.50
74171;DHT22;62526;50.948;6.590;2023-02-28T16:26:21;15.30;29.10
74171;DHT22;62526;50.948;6.590;2023-02-28T16:28:46;15.40;29.10
74171;DHT22;62526;50.948;6.590;2023-02-28T16:31:13;15.10;28.50
74171;DHT22;62526;50.948;6.590;2023-02-28T16:33:50;14.90;29.30
74171;DHT22;62526;50.948;6.590;2023-02-28T16:36:42;14.40;29.10
74171;DHT22;62526;50.948;6.590;2023-02-28T16:41:54;12.20;31.40
74171;DHT22;62526;50.948;6.590;2023-02-28T16:55:41;8.70;39.70
74171;DHT22;62526;50.948;6.590;2023-02-28T16:58:13;8.30;41.80
74171;DHT22;62526;50.948;6.590;2023-02-28T17:00:38;8.10;43.90
74171;DHT22;62526;50.948;6.590;2023-02-28T17:03:20;7.90;44.20
74171;DHT22;62526;50.948;6.590;2023-02-28T19:48:07;3.60;99.90
74171;DHT22;62526;50.948;6.590;2023-02-28T22:28:32;2.10;99.90
